Lineboro, Maryland
Current Conditions -  °F | °C
As of 6:55 PM on Friday 28 Nov 2014 (Local Time) from KDMW Reporting Station
Scattered Clouds Scattered Clouds  
Wind Chill: 22°   Ceiling: Unl
Heat Index: 28°   Visibility: 10mi
Dew Point: 16°   Wind: 6mph
Humidity: 59%   Direction: 310°NW
Pressure: 30.25"   Gusts: NA
Location:  39.72°N, 76.84°W
Report Text: KDMW 282355Z AUTO 31005KT 10SM SCT090 M02/M09 A3025 RMK AO2
Loading
Personal Weather Stations






























Interactive Weather Map New forecast layout! Learn more

10-Day Weather Forecast

Advertisements
Track Severe Weather on mobile